createdAt,value
2019-02-04T00:01:46.777Z,90.60
2019-02-04T00:04:17.685Z,90.60
2019-02-04T00:06:48.591Z,90.60
2019-02-04T00:09:19.465Z,90.60
2019-02-04T00:11:50.331Z,90.60
2019-02-04T00:14:21.125Z,90.50
2019-02-04T00:16:52.079Z,90.60
2019-02-04T00:19:22.971Z,90.60
2019-02-04T00:21:54.121Z,90.40
2019-02-04T00:24:25.323Z,90.60
2019-02-04T00:26:56.138Z,90.50
2019-02-04T00:29:27.204Z,90.50
2019-02-04T00:31:57.953Z,90.50
2019-02-04T00:34:28.836Z,90.40
2019-02-04T00:36:59.614Z,90.60
2019-02-04T00:39:30.553Z,90.70
2019-02-04T00:42:01.529Z,90.50
2019-02-04T00:44:32.399Z,90.30
2019-02-04T00:47:03.501Z,90.30
2019-02-04T00:49:34.315Z,90.50
2019-02-04T00:52:05.249Z,90.40
2019-02-04T00:54:36.027Z,90.50
2019-02-04T00:57:06.990Z,90.70
2019-02-04T00:59:37.720Z,90.70
2019-02-04T01:02:08.826Z,90.40
2019-02-04T01:04:39.987Z,90.20
2019-02-04T01:07:11.170Z,90.30
2019-02-04T01:09:41.857Z,90.20
2019-02-04T01:12:12.588Z,90.20
2019-02-04T01:14:43.563Z,90.30
2019-02-04T01:17:14.647Z,90.30
2019-02-04T01:19:45.696Z,90.40
2019-02-04T01:22:16.638Z,90.70
2019-02-04T01:24:48.207Z,90.50
2019-02-04T01:27:19.449Z,90.40
2019-02-04T01:29:50.709Z,90.40
2019-02-04T01:32:21.333Z,90.50
2019-02-04T01:34:52.168Z,90.60
2019-02-04T01:37:22.862Z,90.50
2019-02-04T01:39:53.920Z,90.50
2019-02-04T01:42:24.810Z,90.60
2019-02-04T01:44:55.657Z,90.50
2019-02-04T01:47:26.346Z,90.50
2019-02-04T01:49:57.232Z,90.60
2019-02-04T01:52:27.735Z,90.40
2019-02-04T01:54:58.782Z,90.70
2019-02-04T01:57:29.679Z,90.50
2019-02-04T02:00:00.573Z,90.70
2019-02-04T02:02:31.477Z,90.60
2019-02-04T02:05:02.164Z,90.80
2019-02-04T02:07:33.522Z,90.80
2019-02-04T02:10:04.666Z,90.40
2019-02-04T02:12:35.682Z,90.30
2019-02-04T02:15:08.329Z,90.30
2019-02-04T02:17:39.434Z,90.40
2019-02-04T02:20:16.747Z,90.50
2019-02-04T02:22:47.308Z,90.80
2019-02-04T02:25:18.186Z,90.40
2019-02-04T02:27:48.935Z,90.40
2019-02-04T02:30:22.468Z,90.40
2019-02-04T02:32:53.082Z,90.30
2019-02-04T02:35:23.797Z,90.50
2019-02-04T02:37:54.366Z,90.40
2019-02-04T02:40:27.697Z,90.40
2019-02-04T02:42:58.298Z,90.60
2019-02-04T02:45:28.890Z,90.70
2019-02-04T02:47:59.565Z,90.50
2019-02-04T02:50:31.053Z,90.70
2019-02-04T02:53:01.647Z,90.80
2019-02-04T02:55:32.691Z,90.60
2019-02-04T02:58:03.510Z,90.80
2019-02-04T03:00:34.605Z,90.70
2019-02-04T03:03:05.399Z,90.80
2019-02-04T03:05:36.190Z,90.90
2019-02-04T03:08:07.074Z,90.80
2019-02-04T03:10:37.940Z,90.90
2019-02-04T03:13:08.845Z,91.10
2019-02-04T03:15:39.795Z,90.90
2019-02-04T03:18:10.761Z,91.00
2019-02-04T03:20:41.623Z,91.10
2019-02-04T03:23:12.249Z,91.10
2019-02-04T03:25:43.397Z,91.30
2019-02-04T03:28:14.117Z,91.30
2019-02-04T03:30:45.253Z,91.40
2019-02-04T03:33:16.912Z,91.40
2019-02-04T03:35:48.149Z,91.50
2019-02-04T03:38:18.764Z,91.50
2019-02-04T03:40:49.819Z,91.60
2019-02-04T03:43:20.670Z,91.70
2019-02-04T03:45:51.463Z,91.70
2019-02-04T03:48:22.339Z,91.80
2019-02-04T03:50:52.970Z,91.60
2019-02-04T03:53:23.859Z,91.70
2019-02-04T03:55:55.046Z,91.90
2019-02-04T03:58:27.315Z,92.00
2019-02-04T04:00:58.353Z,91.80
2019-02-04T04:03:29.102Z,92.10
2019-02-04T04:06:00.224Z,91.90
2019-02-04T04:08:30.974Z,92.00
2019-02-04T04:11:01.874Z,91.90
2019-02-04T04:13:32.852Z,91.80
2019-02-04T04:16:03.658Z,92.00
2019-02-04T04:18:34.576Z,92.10
2019-02-04T04:21:05.362Z,91.90
2019-02-04T04:23:36.211Z,92.00
2019-02-04T04:26:07.144Z,92.20
2019-02-04T04:28:37.772Z,92.20
2019-02-04T04:31:08.752Z,92.40
2019-02-04T04:33:39.442Z,92.20
2019-02-04T04:36:10.570Z,92.20
2019-02-04T04:38:41.616Z,92.20
2019-02-04T04:41:12.512Z,92.20
2019-02-04T04:43:43.190Z,92.10
2019-02-04T04:46:14.220Z,92.40
2019-02-04T04:48:45.286Z,92.30
2019-02-04T04:51:16.501Z,92.20
2019-02-04T04:53:47.305Z,92.30
2019-02-04T04:56:18.376Z,92.40
2019-02-04T04:58:49.516Z,92.40
2019-02-04T05:01:20.464Z,92.50
2019-02-04T05:03:51.475Z,92.50
2019-02-04T05:06:22.146Z,92.50
2019-02-04T05:08:53.131Z,92.60
2019-02-04T05:11:23.846Z,92.50
2019-02-04T05:13:54.833Z,92.50
2019-02-04T05:16:25.889Z,92.50
2019-02-04T05:18:56.642Z,92.50
2019-02-04T05:21:27.760Z,92.40
2019-02-04T05:23:58.344Z,92.50
2019-02-04T05:26:29.189Z,92.20
2019-02-04T05:28:59.795Z,92.50
2019-02-04T05:31:30.549Z,92.60
2019-02-04T05:34:01.339Z,92.50
2019-02-04T05:36:32.017Z,92.40
2019-02-04T05:39:02.717Z,92.50
2019-02-04T05:41:33.593Z,92.60
2019-02-04T05:44:04.790Z,92.70
2019-02-04T05:46:36.137Z,92.80
2019-02-04T05:49:07.161Z,92.80
2019-02-04T05:51:38.109Z,92.70
2019-02-04T05:54:09.471Z,92.90
2019-02-04T05:56:40.655Z,93.20
2019-02-04T05:59:11.499Z,93.00
2019-02-04T06:01:42.025Z,93.10
2019-02-04T06:04:12.948Z,93.30
2019-02-04T06:06:43.589Z,93.20
2019-02-04T06:09:14.558Z,93.20
2019-02-04T06:11:47.334Z,93.90
2019-02-04T06:14:21.214Z,93.90
2019-02-04T06:16:52.423Z,93.60
2019-02-04T06:19:23.881Z,93.70
2019-02-04T06:21:54.863Z,94.00
2019-02-04T06:24:25.667Z,93.80
2019-02-04T06:26:56.430Z,94.10
2019-02-04T06:29:27.220Z,93.70
2019-02-04T06:31:57.893Z,93.70
2019-02-04T06:34:28.686Z,94.30
2019-02-04T06:36:59.405Z,94.00
2019-02-04T06:39:30.209Z,93.80
2019-02-04T06:42:01.092Z,93.90
2019-02-04T06:44:32.204Z,93.80
2019-02-04T06:47:02.966Z,93.80
2019-02-04T06:49:33.823Z,93.80
2019-02-04T06:52:04.966Z,94.10
2019-02-04T06:54:35.816Z,94.30
2019-02-04T06:57:06.468Z,94.10
2019-02-04T06:59:37.485Z,94.30
2019-02-04T07:02:08.498Z,94.20
2019-02-04T07:04:39.678Z,94.40
2019-02-04T07:07:10.586Z,94.50
2019-02-04T07:09:41.692Z,94.30
2019-02-04T07:12:12.696Z,94.30
2019-02-04T07:14:43.776Z,94.20
2019-02-04T07:17:14.780Z,94.30
2019-02-04T07:19:45.298Z,94.50
2019-02-04T07:22:15.852Z,94.40
2019-02-04T07:24:47.022Z,94.30
2019-02-04T07:27:18.268Z,94.30
2019-02-04T07:29:49.122Z,94.40
2019-02-04T07:32:19.894Z,94.50
2019-02-04T07:34:50.522Z,94.50
2019-02-04T07:37:21.384Z,94.70
2019-02-04T07:39:52.428Z,94.50
2019-02-04T07:42:22.996Z,94.50
2019-02-04T07:44:54.124Z,94.60
2019-02-04T07:47:24.980Z,94.60
2019-02-04T07:49:56.478Z,94.60
2019-02-04T07:52:28.784Z,94.70
2019-02-04T07:54:59.558Z,94.80
2019-02-04T07:57:30.388Z,94.90
2019-02-04T08:00:01.398Z,94.60
2019-02-04T08:02:32.221Z,94.70
2019-02-04T08:05:03.806Z,94.40
2019-02-04T08:07:34.695Z,94.60
2019-02-04T08:10:07.820Z,94.60
2019-02-04T08:12:38.838Z,94.60
2019-02-04T08:15:24.420Z,94.70
2019-02-04T08:17:55.549Z,94.80
2019-02-04T08:20:27.560Z,94.90
2019-02-04T08:22:58.672Z,94.90
2019-02-04T08:25:29.284Z,94.70
2019-02-04T08:28:00.423Z,95.00
2019-02-04T08:30:32.990Z,94.90
2019-02-04T08:33:03.764Z,95.00
2019-02-04T08:35:34.722Z,95.10
2019-02-04T08:38:05.552Z,95.10
2019-02-04T08:40:36.694Z,95.20
2019-02-04T08:43:07.619Z,95.50
2019-02-04T08:45:38.319Z,95.10
2019-02-04T08:48:09.023Z,95.30
2019-02-04T08:50:39.889Z,95.30
2019-02-04T08:53:10.634Z,95.30
2019-02-04T08:55:41.525Z,95.30
2019-02-04T08:58:12.250Z,95.40
2019-02-04T09:00:43.013Z,95.40
2019-02-04T09:03:13.602Z,95.50
2019-02-04T09:05:44.484Z,95.50
2019-02-04T09:08:15.654Z,95.40
2019-02-04T09:10:46.915Z,95.40
2019-02-04T09:13:17.950Z,95.60
2019-02-04T09:15:48.764Z,95.60
2019-02-04T09:18:19.948Z,95.60
2019-02-04T09:20:50.948Z,95.40
2019-02-04T09:23:22.260Z,95.40
2019-02-04T09:25:53.340Z,95.20
2019-02-04T09:28:24.324Z,95.50
2019-02-04T09:30:55.693Z,95.20
2019-02-04T09:33:26.573Z,95.20
2019-02-04T09:35:57.552Z,95.20
2019-02-04T09:38:28.426Z,95.20
2019-02-04T09:40:59.505Z,95.40
2019-02-04T09:43:30.414Z,95.20
2019-02-04T09:46:01.135Z,95.40
2019-02-04T09:48:31.869Z,95.40
2019-02-04T09:51:02.683Z,95.30
2019-02-04T09:53:33.308Z,95.20
2019-02-04T09:56:04.413Z,95.40
2019-02-04T09:58:35.164Z,95.30
2019-02-04T10:01:06.496Z,95.10
2019-02-04T10:03:37.426Z,95.00
2019-02-04T10:06:08.473Z,95.20
2019-02-04T10:08:39.338Z,94.90
2019-02-04T10:11:12.201Z,95.20
2019-02-04T10:13:43.539Z,94.80
2019-02-04T10:16:14.376Z,94.70
2019-02-04T10:18:45.526Z,95.00
2019-02-04T10:21:18.397Z,94.90
2019-02-04T10:23:52.342Z,95.00
2019-02-04T10:26:25.799Z,95.20
2019-02-04T10:28:56.883Z,95.30
2019-02-04T10:31:27.543Z,95.00
2019-02-04T10:33:58.346Z,94.90
2019-02-04T10:36:29.148Z,95.00
2019-02-04T10:39:00.213Z,94.90
2019-02-04T10:41:31.050Z,94.90
2019-02-04T10:44:02.024Z,94.80
2019-02-04T10:46:32.954Z,94.90
2019-02-04T10:49:03.715Z,94.60
2019-02-04T10:51:34.969Z,94.70
2019-02-04T10:54:06.376Z,94.40
2019-02-04T10:56:37.124Z,94.60
2019-02-04T10:59:09.860Z,94.80
2019-02-04T11:01:40.544Z,94.30
2019-02-04T11:04:11.214Z,94.30
2019-02-04T11:06:41.898Z,94.40
2019-02-04T11:09:13.000Z,94.40
2019-02-04T11:11:43.761Z,94.50
2019-02-04T11:14:14.648Z,94.30
2019-02-04T11:16:45.416Z,94.20
2019-02-04T11:19:16.548Z,94.10
2019-02-04T11:21:47.492Z,94.10
2019-02-04T11:24:18.388Z,94.20
2019-02-04T11:26:48.991Z,94.10
2019-02-04T11:29:20.143Z,94.10
2019-02-04T11:31:51.001Z,94.10
2019-02-04T11:34:21.978Z,94.00
2019-02-04T11:36:52.745Z,93.80
2019-02-04T11:39:23.655Z,93.90
2019-02-04T11:41:54.548Z,94.00
2019-02-04T11:44:25.743Z,93.90
2019-02-04T11:46:56.636Z,93.90
2019-02-04T11:49:27.255Z,94.00
2019-02-04T11:51:57.994Z,93.80
2019-02-04T11:54:29.064Z,93.70
2019-02-04T11:57:00.202Z,93.50
2019-02-04T11:59:31.071Z,93.20
2019-02-04T12:02:01.853Z,93.30
2019-02-04T12:04:32.533Z,93.30
2019-02-04T12:07:03.320Z,93.00
2019-02-04T12:09:34.501Z,92.80
2019-02-04T12:12:05.829Z,92.80
2019-02-04T12:14:36.987Z,93.20
2019-02-04T12:17:08.552Z,92.90
2019-02-04T12:19:39.330Z,93.00
2019-02-04T12:22:10.133Z,92.90
2019-02-04T12:24:40.929Z,92.60
2019-02-04T12:27:11.886Z,92.40
2019-02-04T12:29:42.836Z,92.60
2019-02-04T12:32:13.622Z,92.60
2019-02-04T12:34:44.796Z,92.50
2019-02-04T12:37:15.896Z,92.40
2019-02-04T12:39:46.782Z,92.20
2019-02-04T12:42:17.743Z,92.40
2019-02-04T12:44:48.671Z,91.90
2019-02-04T12:47:19.582Z,92.00
2019-02-04T12:49:50.946Z,92.00
2019-02-04T12:52:21.808Z,91.60
2019-02-04T12:54:52.607Z,91.70
2019-02-04T12:57:23.754Z,91.50
2019-02-04T12:59:55.064Z,91.70
2019-02-04T13:02:25.882Z,91.80
2019-02-04T13:04:56.656Z,91.90
2019-02-04T13:07:27.882Z,92.00
2019-02-04T13:09:58.966Z,92.00
2019-02-04T13:12:29.909Z,92.00
2019-02-04T13:15:00.978Z,91.90
2019-02-04T13:17:31.630Z,92.00
2019-02-04T13:20:02.609Z,91.80
2019-02-04T13:22:33.467Z,91.80
2019-02-04T13:25:05.065Z,92.00
2019-02-04T13:27:35.969Z,91.70
2019-02-04T13:30:09.645Z,91.70
2019-02-04T13:32:40.406Z,91.70
2019-02-04T13:35:12.249Z,91.70
2019-02-04T13:37:42.886Z,91.50
2019-02-04T13:40:19.351Z,91.60
2019-02-04T13:42:50.034Z,91.50
2019-02-04T13:45:21.808Z,91.40
2019-02-04T13:47:53.556Z,91.40
2019-02-04T13:50:24.953Z,91.20
2019-02-04T13:52:55.860Z,91.20
2019-02-04T13:55:31.589Z,91.20
2019-02-04T13:58:02.584Z,91.20
2019-02-04T14:00:33.547Z,91.00
2019-02-04T14:03:04.614Z,91.20
2019-02-04T14:05:35.688Z,91.40
2019-02-04T14:08:06.769Z,91.10
2019-02-04T14:10:40.178Z,91.00
2019-02-04T14:13:10.834Z,90.90
2019-02-04T14:15:42.499Z,90.90
2019-02-04T14:18:13.312Z,90.80
2019-02-04T14:20:43.999Z,90.70
2019-02-04T14:23:15.144Z,90.80
2019-02-04T14:25:46.067Z,90.90
2019-02-04T14:28:17.405Z,91.00
2019-02-04T14:30:48.261Z,90.90
2019-02-04T14:33:19.040Z,90.90
2019-02-04T14:35:49.974Z,91.20
2019-02-04T14:38:20.655Z,91.00
2019-02-04T14:40:51.748Z,90.80
2019-02-04T14:43:25.562Z,90.80
2019-02-04T14:46:11.211Z,91.00
2019-02-04T14:48:54.189Z,90.90
2019-02-04T14:51:42.819Z,91.00
2019-02-04T14:54:44.617Z,91.00
2019-02-04T14:57:34.365Z,90.90
2019-02-04T15:00:20.463Z,91.00
2019-02-04T15:02:53.734Z,91.10
2019-02-04T15:05:27.101Z,91.00
2019-02-04T15:08:33.599Z,91.00
2019-02-04T15:11:07.269Z,91.20
2019-02-04T15:13:56.297Z,91.10
2019-02-04T15:16:41.893Z,91.30
2019-02-04T15:19:29.140Z,91.40
2019-02-04T15:22:32.809Z,91.40
2019-02-04T15:25:18.097Z,91.60
2019-02-04T15:28:12.790Z,91.90
2019-02-04T15:30:48.956Z,92.00
2019-02-04T15:33:40.983Z,92.40
2019-02-04T15:36:20.535Z,92.40
2019-02-04T15:39:02.753Z,92.50
2019-02-04T15:41:51.454Z,92.70
2019-02-04T15:44:44.540Z,92.80
2019-02-04T15:47:21.225Z,93.00
2019-02-04T15:50:23.348Z,93.10
2019-02-04T15:52:54.042Z,93.20
2019-02-04T15:55:24.722Z,93.40
2019-02-04T15:57:55.280Z,93.40
2019-02-04T16:00:25.868Z,93.40
2019-02-04T16:02:56.959Z,93.40
2019-02-04T16:05:28.105Z,93.40
2019-02-04T16:07:59.031Z,93.40
2019-02-04T16:10:30.037Z,93.40
2019-02-04T16:13:00.990Z,93.30
2019-02-04T16:15:31.881Z,93.20
2019-02-04T16:18:02.958Z,93.20
2019-02-04T16:20:33.658Z,93.20
2019-02-04T16:23:04.925Z,93.20
2019-02-04T16:25:35.729Z,93.20
2019-02-04T16:28:06.514Z,93.20
2019-02-04T16:30:38.345Z,93.20
2019-02-04T16:33:09.397Z,93.10
2019-02-04T16:35:40.003Z,93.10
2019-02-04T16:38:10.872Z,93.20
2019-02-04T16:40:41.605Z,93.30
2019-02-04T16:43:12.298Z,93.60
2019-02-04T16:45:43.060Z,93.60
2019-02-04T16:48:13.859Z,93.60
2019-02-04T16:50:44.541Z,93.70
2019-02-04T16:53:15.351Z,93.80
2019-02-04T16:55:47.590Z,93.80
2019-02-04T16:58:18.376Z,93.90
2019-02-04T17:00:49.187Z,94.00
2019-02-04T17:03:19.947Z,94.00
2019-02-04T17:05:51.036Z,94.10
2019-02-04T17:08:22.074Z,94.10
2019-02-04T17:10:54.575Z,94.10
2019-02-04T17:13:25.424Z,94.20
2019-02-04T17:15:56.079Z,94.20
2019-02-04T17:18:26.774Z,94.40
2019-02-04T17:20:57.513Z,94.50
2019-02-04T17:23:28.932Z,94.50
2019-02-04T17:25:59.883Z,94.70
2019-02-04T17:28:30.788Z,94.80
2019-02-04T17:31:01.857Z,94.80
2019-02-04T17:33:32.505Z,94.70
2019-02-04T17:36:03.387Z,94.90
2019-02-04T17:38:34.289Z,94.90
2019-02-04T17:41:05.566Z,94.80
2019-02-04T17:43:36.636Z,94.80
2019-02-04T17:46:07.556Z,94.90
2019-02-04T17:48:38.560Z,95.00
2019-02-04T17:51:09.791Z,95.00
2019-02-04T17:53:40.810Z,96.20
2019-02-04T17:56:12.175Z,97.10
2019-02-04T17:58:42.968Z,96.70
2019-02-04T18:01:13.794Z,96.20
2019-02-04T18:03:44.806Z,95.90
2019-02-04T18:06:16.072Z,96.00
2019-02-04T18:08:46.668Z,95.80
2019-02-04T18:11:17.590Z,95.70
2019-02-04T18:13:48.512Z,95.80
2019-02-04T18:16:19.483Z,95.60
2019-02-04T18:18:50.387Z,95.90
2019-02-04T18:21:21.645Z,95.60
2019-02-04T18:23:52.755Z,95.70
2019-02-04T18:26:23.529Z,95.70
2019-02-04T18:28:54.641Z,95.70
2019-02-04T18:31:25.534Z,95.90
2019-02-04T18:33:56.664Z,95.80
2019-02-04T18:36:27.458Z,95.70
2019-02-04T18:38:58.817Z,95.80
2019-02-04T18:41:29.614Z,96.00
2019-02-04T18:44:00.750Z,96.00
2019-02-04T18:46:31.898Z,95.90
2019-02-04T18:49:02.532Z,96.40
2019-02-04T18:51:33.466Z,96.00
2019-02-04T18:54:04.338Z,96.20
2019-02-04T18:56:35.098Z,96.00
2019-02-04T18:59:06.433Z,96.00
2019-02-04T19:01:37.392Z,96.30
2019-02-04T19:04:08.511Z,96.50
2019-02-04T19:06:47.407Z,96.10
2019-02-04T19:09:12.065Z,96.20
2019-02-04T19:11:42.786Z,96.40
2019-02-04T19:14:13.326Z,96.20
2019-02-04T19:16:44.606Z,96.40
2019-02-04T19:19:15.305Z,96.60
2019-02-04T19:21:46.574Z,96.40
2019-02-04T19:24:18.160Z,96.40
2019-02-04T19:26:50.233Z,96.40
2019-02-04T19:29:22.385Z,96.40
2019-02-04T19:31:54.283Z,96.50
2019-02-04T19:34:25.205Z,96.60
2019-02-04T19:36:56.120Z,96.60
2019-02-04T19:39:26.875Z,96.60
2019-02-04T19:41:58.024Z,96.50
2019-02-04T19:44:29.033Z,96.60
2019-02-04T19:47:00.098Z,97.40
2019-02-04T19:49:31.011Z,97.80
2019-02-04T19:52:03.151Z,98.00
2019-02-04T19:54:33.921Z,98.00
2019-02-04T19:57:05.281Z,98.10
2019-02-04T19:59:36.238Z,98.10
2019-02-04T20:02:07.369Z,98.10
2019-02-04T20:04:39.363Z,97.90
2019-02-04T20:07:10.667Z,98.10
2019-02-04T20:09:42.779Z,98.10
2019-02-04T20:12:15.212Z,98.00
2019-02-04T20:14:46.340Z,98.00
2019-02-04T20:17:17.897Z,97.80
2019-02-04T20:19:49.271Z,97.80
2019-02-04T20:22:20.474Z,97.70
2019-02-04T20:24:52.162Z,97.60
2019-02-04T20:27:23.069Z,97.50
2019-02-04T20:29:53.858Z,97.70
2019-02-04T20:32:24.914Z,97.50
2019-02-04T20:34:55.766Z,97.40
2019-02-04T20:37:28.207Z,97.40
2019-02-04T20:39:59.091Z,97.30
2019-02-04T20:42:29.782Z,97.30
2019-02-04T20:45:02.491Z,97.30
2019-02-04T20:47:33.549Z,97.10
2019-02-04T20:50:04.983Z,97.20
2019-02-04T20:52:35.781Z,97.20
2019-02-04T20:55:07.697Z,97.10
2019-02-04T20:57:38.423Z,97.00
2019-02-04T21:00:12.433Z,97.20
2019-02-04T21:02:44.302Z,97.10
2019-02-04T21:05:15.326Z,97.00
2019-02-04T21:07:46.014Z,97.00
2019-02-04T21:10:18.663Z,97.10
2019-02-04T21:12:49.548Z,97.10
2019-02-04T21:15:22.047Z,97.00
2019-02-04T21:17:53.161Z,97.00
2019-02-04T21:20:28.377Z,97.10
2019-02-04T21:22:59.270Z,97.00
2019-02-04T21:25:30.108Z,97.40
2019-02-04T21:28:00.798Z,97.10
2019-02-04T21:30:37.293Z,97.10
2019-02-04T21:33:08.096Z,97.10
2019-02-04T21:35:39.120Z,97.10
2019-02-04T21:38:10.090Z,97.10
2019-02-04T21:40:40.931Z,97.00
2019-02-04T21:43:11.705Z,97.00
2019-02-04T21:45:42.664Z,97.00
2019-02-04T21:48:13.644Z,97.00
2019-02-04T21:50:44.621Z,97.00
2019-02-04T21:53:15.456Z,97.00
2019-02-04T21:55:46.343Z,97.10
2019-02-04T21:58:17.136Z,96.90
2019-02-04T22:00:48.293Z,97.10
2019-02-04T22:03:19.205Z,97.10
2019-02-04T22:05:50.475Z,97.10
2019-02-04T22:08:21.851Z,97.00
2019-02-04T22:10:53.006Z,97.10
2019-02-04T22:13:23.630Z,97.10
2019-02-04T22:15:54.980Z,97.00
2019-02-04T22:18:26.101Z,97.10
2019-02-04T22:20:56.969Z,97.10
2019-02-04T22:23:28.000Z,97.30
2019-02-04T22:25:59.546Z,97.20
2019-02-04T22:28:30.421Z,97.20
2019-02-04T22:31:01.437Z,97.30
2019-02-04T22:33:32.274Z,97.20
2019-02-04T22:36:03.043Z,97.20
2019-02-04T22:38:33.727Z,97.20
2019-02-04T22:41:04.609Z,97.20
2019-02-04T22:43:35.728Z,97.20
2019-02-04T22:46:08.184Z,97.40
2019-02-04T22:48:42.361Z,97.30
2019-02-04T22:51:13.113Z,97.30
2019-02-04T22:53:43.750Z,97.30
2019-02-04T22:56:14.882Z,97.30
2019-02-04T22:58:46.225Z,97.30
2019-02-04T23:01:25.360Z,97.40
2019-02-04T23:03:56.218Z,97.30
2019-02-04T23:06:27.013Z,97.40
2019-02-04T23:08:58.171Z,97.40
2019-02-04T23:11:28.834Z,97.40
2019-02-04T23:13:59.906Z,97.40
2019-02-04T23:16:31.663Z,97.50
2019-02-04T23:19:02.502Z,97.50
2019-02-04T23:21:33.391Z,97.60
2019-02-04T23:24:04.272Z,97.70
2019-02-04T23:26:35.145Z,97.50
2019-02-04T23:29:06.511Z,97.60
2019-02-04T23:31:37.481Z,97.70
2019-02-04T23:34:08.205Z,97.80
2019-02-04T23:36:39.157Z,97.70
2019-02-04T23:39:10.384Z,97.80
2019-02-04T23:41:41.155Z,97.80
2019-02-04T23:44:11.745Z,97.60
2019-02-04T23:46:42.695Z,97.90
2019-02-04T23:49:13.548Z,97.80
2019-02-04T23:51:46.960Z,98.00
2019-02-04T23:54:16.904Z,97.90
2019-02-04T23:56:47.840Z,97.90
2019-02-04T23:59:18.657Z,98.00
